sensor_id;sensor_type;location;lat;lon;timestamp;temperature;humidity
7970;DHT22;4030;52.362;9.206;2022-08-25T00:01:18;26.20;43.30
7970;DHT22;4030;52.362;9.206;2022-08-25T00:03:49;26.30;43.50
7970;DHT22;4030;52.362;9.206;2022-08-25T00:08:42;26.20;43.70
7970;DHT22;4030;52.362;9.206;2022-08-25T00:11:18;26.20;43.80
7970;DHT22;4030;52.362;9.206;2022-08-25T00:13:48;26.20;43.90
7970;DHT22;4030;52.362;9.206;2022-08-25T00:16:21;26.10;43.80
7970;DHT22;4030;52.362;9.206;2022-08-25T00:18:53;26.10;44.00
7970;DHT22;4030;52.362;9.206;2022-08-25T00:21:21;26.10;44.10
7970;DHT22;4030;52.362;9.206;2022-08-25T00:23:47;25.80;44.00
7970;DHT22;4030;52.362;9.206;2022-08-25T00:26:14;26.00;44.20
7970;DHT22;4030;52.362;9.206;2022-08-25T00:28:41;25.90;44.30
7970;DHT22;4030;52.362;9.206;2022-08-25T00:31:16;25.90;44.30
7970;DHT22;4030;52.362;9.206;2022-08-25T00:33:44;25.90;44.40
7970;DHT22;4030;52.362;9.206;2022-08-25T00:38:39;25.80;44.50
7970;DHT22;4030;52.362;9.206;2022-08-25T00:41:07;25.70;44.60
7970;DHT22;4030;52.362;9.206;2022-08-25T00:43:45;25.70;44.70
7970;DHT22;4030;52.362;9.206;2022-08-25T00:46:21;25.60;44.80
7970;DHT22;4030;52.362;9.206;2022-08-25T00:48:54;25.60;45.00
7970;DHT22;4030;52.362;9.206;2022-08-25T00:51:36;25.60;45.10
7970;DHT22;4030;52.362;9.206;2022-08-25T00:54:07;25.40;45.10
7970;DHT22;4030;52.362;9.206;2022-08-25T00:59:04;25.50;45.50
7970;DHT22;4030;52.362;9.206;2022-08-25T01:01:30;25.40;45.60
7970;DHT22;4030;52.362;9.206;2022-08-25T01:03:56;25.50;45.90
7970;DHT22;4030;52.362;9.206;2022-08-25T01:06:22;25.40;45.90
7970;DHT22;4030;52.362;9.206;2022-08-25T01:08:49;25.30;46.00
7970;DHT22;4030;52.362;9.206;2022-08-25T01:13:50;25.30;46.30
7970;DHT22;4030;52.362;9.206;2022-08-25T01:16:18;25.30;46.40
7970;DHT22;4030;52.362;9.206;2022-08-25T01:18:53;25.20;46.40
7970;DHT22;4030;52.362;9.206;2022-08-25T01:21:23;25.10;46.50
7970;DHT22;4030;52.362;9.206;2022-08-25T01:23:50;25.00;46.60
7970;DHT22;4030;52.362;9.206;2022-08-25T01:26:21;25.00;46.70
7970;DHT22;4030;52.362;9.206;2022-08-25T01:28:49;25.10;46.90
7970;DHT22;4030;52.362;9.206;2022-08-25T01:31:36;25.00;47.00
7970;DHT22;4030;52.362;9.206;2022-08-25T01:34:05;25.00;47.00
7970;DHT22;4030;52.362;9.206;2022-08-25T01:36:31;25.00;47.10
7970;DHT22;4030;52.362;9.206;2022-08-25T01:38:58;25.00;47.20
7970;DHT22;4030;52.362;9.206;2022-08-25T01:41:48;25.00;47.30
7970;DHT22;4030;52.362;9.206;2022-08-25T01:46:47;25.00;47.20
7970;DHT22;4030;52.362;9.206;2022-08-25T01:51:46;24.80;47.20
7970;DHT22;4030;52.362;9.206;2022-08-25T01:54:16;24.80;47.40
7970;DHT22;4030;52.362;9.206;2022-08-25T01:56:41;24.60;47.30
7970;DHT22;4030;52.362;9.206;2022-08-25T01:59:08;24.80;47.60
7970;DHT22;4030;52.362;9.206;2022-08-25T02:01:34;24.60;47.50
7970;DHT22;4030;52.362;9.206;2022-08-25T02:06:31;24.60;47.70
7970;DHT22;4030;52.362;9.206;2022-08-25T02:09:08;24.60;47.80
7970;DHT22;4030;52.362;9.206;2022-08-25T02:11:38;24.60;48.00
7970;DHT22;4030;52.362;9.206;2022-08-25T02:14:07;24.50;48.00
7970;DHT22;4030;52.362;9.206;2022-08-25T02:16:36;24.60;48.20
7970;DHT22;4030;52.362;9.206;2022-08-25T02:19:05;24.50;48.40
7970;DHT22;4030;52.362;9.206;2022-08-25T02:21:33;24.40;48.50
7970;DHT22;4030;52.362;9.206;2022-08-25T02:24:00;24.30;48.60
7970;DHT22;4030;52.362;9.206;2022-08-25T02:26:26;24.40;48.80
7970;DHT22;4030;52.362;9.206;2022-08-25T02:28:53;24.40;48.80
7970;DHT22;4030;52.362;9.206;2022-08-25T02:31:21;24.30;48.90
7970;DHT22;4030;52.362;9.206;2022-08-25T02:33:48;24.40;49.10
7970;DHT22;4030;52.362;9.206;2022-08-25T02:38:41;24.20;49.10
7970;DHT22;4030;52.362;9.206;2022-08-25T02:41:10;24.20;49.20
7970;DHT22;4030;52.362;9.206;2022-08-25T02:43:39;24.20;49.40
7970;DHT22;4030;52.362;9.206;2022-08-25T02:48:32;24.20;49.70
7970;DHT22;4030;52.362;9.206;2022-08-25T02:50:59;24.20;49.80
7970;DHT22;4030;52.362;9.206;2022-08-25T02:53:27;24.00;49.80
7970;DHT22;4030;52.362;9.206;2022-08-25T02:55:53;24.10;49.90
7970;DHT22;4030;52.362;9.206;2022-08-25T02:58:19;24.00;50.00
7970;DHT22;4030;52.362;9.206;2022-08-25T03:00:46;24.00;50.00
7970;DHT22;4030;52.362;9.206;2022-08-25T03:03:12;24.00;50.20
7970;DHT22;4030;52.362;9.206;2022-08-25T03:05:39;24.00;50.20
7970;DHT22;4030;52.362;9.206;2022-08-25T03:08:05;24.00;50.50
7970;DHT22;4030;52.362;9.206;2022-08-25T03:10:33;23.90;50.50
7970;DHT22;4030;52.362;9.206;2022-08-25T03:12:59;23.70;50.40
7970;DHT22;4030;52.362;9.206;2022-08-25T03:15:25;23.90;50.70
7970;DHT22;4030;52.362;9.206;2022-08-25T03:17:53;23.80;50.60
7970;DHT22;4030;52.362;9.206;2022-08-25T03:20:21;23.80;50.80
7970;DHT22;4030;52.362;9.206;2022-08-25T03:22:48;23.60;50.80
7970;DHT22;4030;52.362;9.206;2022-08-25T03:25:14;23.70;50.90
7970;DHT22;4030;52.362;9.206;2022-08-25T03:27:59;23.70;51.10
7970;DHT22;4030;52.362;9.206;2022-08-25T03:30:25;23.70;51.20
7970;DHT22;4030;52.362;9.206;2022-08-25T03:32:52;23.70;51.40
7970;DHT22;4030;52.362;9.206;2022-08-25T03:35:17;23.60;51.40
7970;DHT22;4030;52.362;9.206;2022-08-25T03:37:43;23.60;51.40
7970;DHT22;4030;52.362;9.206;2022-08-25T03:40:12;23.60;51.60
7970;DHT22;4030;52.362;9.206;2022-08-25T03:42:43;23.40;51.50
7970;DHT22;4030;52.362;9.206;2022-08-25T03:45:11;23.40;51.60
7970;DHT22;4030;52.362;9.206;2022-08-25T03:47:38;23.50;51.70
7970;DHT22;4030;52.362;9.206;2022-08-25T03:50:09;23.30;51.60
7970;DHT22;4030;52.362;9.206;2022-08-25T03:52:36;23.40;51.80
7970;DHT22;4030;52.362;9.206;2022-08-25T03:55:05;23.40;51.90
7970;DHT22;4030;52.362;9.206;2022-08-25T03:57:32;23.40;52.00
7970;DHT22;4030;52.362;9.206;2022-08-25T03:59:58;23.40;52.10
7970;DHT22;4030;52.362;9.206;2022-08-25T04:02:24;23.40;52.30
7970;DHT22;4030;52.362;9.206;2022-08-25T04:04:50;23.30;52.30
7970;DHT22;4030;52.362;9.206;2022-08-25T04:07:16;23.20;52.20
7970;DHT22;4030;52.362;9.206;2022-08-25T04:09:41;23.30;52.30
7970;DHT22;4030;52.362;9.206;2022-08-25T04:14:34;23.20;52.50
7970;DHT22;4030;52.362;9.206;2022-08-25T04:17:00;23.20;52.60
7970;DHT22;4030;52.362;9.206;2022-08-25T04:19:25;23.20;52.70
7970;DHT22;4030;52.362;9.206;2022-08-25T04:24:18;23.10;52.90
7970;DHT22;4030;52.362;9.206;2022-08-25T04:26:47;23.20;53.00
7970;DHT22;4030;52.362;9.206;2022-08-25T04:29:17;23.10;53.10
7970;DHT22;4030;52.362;9.206;2022-08-25T04:31:45;22.90;52.90
7970;DHT22;4030;52.362;9.206;2022-08-25T04:34:12;23.10;53.20
7970;DHT22;4030;52.362;9.206;2022-08-25T04:39:04;23.10;53.50
7970;DHT22;4030;52.362;9.206;2022-08-25T04:41:30;23.00;53.60
7970;DHT22;4030;52.362;9.206;2022-08-25T04:43:58;23.00;53.60
7970;DHT22;4030;52.362;9.206;2022-08-25T04:46:30;23.10;53.80
7970;DHT22;4030;52.362;9.206;2022-08-25T04:48:58;23.10;53.90
7970;DHT22;4030;52.362;9.206;2022-08-25T04:51:28;22.70;53.80
7970;DHT22;4030;52.362;9.206;2022-08-25T04:54:04;22.90;53.90
7970;DHT22;4030;52.362;9.206;2022-08-25T04:56:32;23.00;54.20
7970;DHT22;4030;52.362;9.206;2022-08-25T04:59:07;22.90;54.10
7970;DHT22;4030;52.362;9.206;2022-08-25T05:01:35;22.80;54.10
7970;DHT22;4030;52.362;9.206;2022-08-25T05:04:03;22.70;54.20
7970;DHT22;4030;52.362;9.206;2022-08-25T05:06:32;22.80;54.20
7970;DHT22;4030;52.362;9.206;2022-08-25T05:08:58;22.90;54.40
7970;DHT22;4030;52.362;9.206;2022-08-25T05:11:26;22.70;54.30
7970;DHT22;4030;52.362;9.206;2022-08-25T05:13:53;22.80;54.50
7970;DHT22;4030;52.362;9.206;2022-08-25T05:16:22;22.70;54.50
7970;DHT22;4030;52.362;9.206;2022-08-25T05:21:17;22.80;54.60
7970;DHT22;4030;52.362;9.206;2022-08-25T05:23:45;22.80;54.70
7970;DHT22;4030;52.362;9.206;2022-08-25T05:26:14;22.70;54.70
7970;DHT22;4030;52.362;9.206;2022-08-25T05:28:42;22.80;54.90
7970;DHT22;4030;52.362;9.206;2022-08-25T05:31:12;22.70;55.00
7970;DHT22;4030;52.362;9.206;2022-08-25T05:33:39;22.80;55.10
7970;DHT22;4030;52.362;9.206;2022-08-25T05:36:06;22.60;55.00
7970;DHT22;4030;52.362;9.206;2022-08-25T05:38:34;22.70;55.20
7970;DHT22;4030;52.362;9.206;2022-08-25T05:41:03;22.60;55.30
7970;DHT22;4030;52.362;9.206;2022-08-25T05:43:31;22.60;55.30
7970;DHT22;4030;52.362;9.206;2022-08-25T05:45:58;22.80;55.60
7970;DHT22;4030;52.362;9.206;2022-08-25T05:48:25;22.60;55.50
7970;DHT22;4030;52.362;9.206;2022-08-25T05:50:58;22.60;55.60
7970;DHT22;4030;52.362;9.206;2022-08-25T05:53:27;22.80;55.90
7970;DHT22;4030;52.362;9.206;2022-08-25T05:55:54;22.90;56.10
7970;DHT22;4030;52.362;9.206;2022-08-25T05:58:22;22.60;56.00
7970;DHT22;4030;52.362;9.206;2022-08-25T06:00:48;22.70;55.70
7970;DHT22;4030;52.362;9.206;2022-08-25T06:03:15;22.80;55.70
7970;DHT22;4030;52.362;9.206;2022-08-25T06:05:41;22.70;55.50
7970;DHT22;4030;52.362;9.206;2022-08-25T06:08:07;23.00;55.70
7970;DHT22;4030;52.362;9.206;2022-08-25T06:10:33;22.90;55.50
7970;DHT22;4030;52.362;9.206;2022-08-25T06:12:59;22.80;55.40
7970;DHT22;4030;52.362;9.206;2022-08-25T06:15:26;23.00;56.10
7970;DHT22;4030;52.362;9.206;2022-08-25T06:17:52;23.00;56.40
7970;DHT22;4030;52.362;9.206;2022-08-25T06:20:25;22.90;56.50
7970;DHT22;4030;52.362;9.206;2022-08-25T06:22:52;23.00;56.70
7970;DHT22;4030;52.362;9.206;2022-08-25T06:25:21;22.90;56.70
7970;DHT22;4030;52.362;9.206;2022-08-25T06:27:47;23.00;56.80
7970;DHT22;4030;52.362;9.206;2022-08-25T06:30:16;22.90;56.90
7970;DHT22;4030;52.362;9.206;2022-08-25T06:32:44;23.00;57.00
7970;DHT22;4030;52.362;9.206;2022-08-25T06:35:15;23.00;57.00
7970;DHT22;4030;52.362;9.206;2022-08-25T06:37:43;23.10;57.20
7970;DHT22;4030;52.362;9.206;2022-08-25T06:40:11;22.80;57.10
7970;DHT22;4030;52.362;9.206;2022-08-25T06:42:38;23.20;57.60
7970;DHT22;4030;52.362;9.206;2022-08-25T06:45:04;23.10;57.70
7970;DHT22;4030;52.362;9.206;2022-08-25T06:47:31;23.30;57.90
7970;DHT22;4030;52.362;9.206;2022-08-25T06:49:57;23.10;57.70
7970;DHT22;4030;52.362;9.206;2022-08-25T06:52:23;23.20;57.80
7970;DHT22;4030;52.362;9.206;2022-08-25T06:54:49;23.00;57.70
7970;DHT22;4030;52.362;9.206;2022-08-25T06:57:15;23.20;57.80
7970;DHT22;4030;52.362;9.206;2022-08-25T06:59:40;23.30;57.70
7970;DHT22;4030;52.362;9.206;2022-08-25T07:02:06;23.30;57.80
7970;DHT22;4030;52.362;9.206;2022-08-25T07:04:35;23.30;57.70
7970;DHT22;4030;52.362;9.206;2022-08-25T07:07:01;23.20;57.50
7970;DHT22;4030;52.362;9.206;2022-08-25T07:09:27;23.30;57.20
7970;DHT22;4030;52.362;9.206;2022-08-25T07:11:53;23.40;57.20
7970;DHT22;4030;52.362;9.206;2022-08-25T07:14:19;23.40;57.00
7970;DHT22;4030;52.362;9.206;2022-08-25T07:19:12;23.50;55.60
7970;DHT22;4030;52.362;9.206;2022-08-25T07:21:40;23.40;55.80
7970;DHT22;4030;52.362;9.206;2022-08-25T07:24:11;23.70;56.40
7970;DHT22;4030;52.362;9.206;2022-08-25T07:26:39;23.60;56.60
7970;DHT22;4030;52.362;9.206;2022-08-25T07:29:10;23.60;56.80
7970;DHT22;4030;52.362;9.206;2022-08-25T07:31:38;23.70;57.30
7970;DHT22;4030;52.362;9.206;2022-08-25T07:34:05;23.70;57.30
7970;DHT22;4030;52.362;9.206;2022-08-25T07:36:50;23.80;57.30
7970;DHT22;4030;52.362;9.206;2022-08-25T07:39:16;23.80;57.30
7970;DHT22;4030;52.362;9.206;2022-08-25T07:41:42;23.70;57.20
7970;DHT22;4030;52.362;9.206;2022-08-25T07:44:09;23.80;57.40
7970;DHT22;4030;52.362;9.206;2022-08-25T07:46:36;24.00;57.60
7970;DHT22;4030;52.362;9.206;2022-08-25T07:49:02;24.00;57.60
7970;DHT22;4030;52.362;9.206;2022-08-25T07:51:28;24.10;57.80
7970;DHT22;4030;52.362;9.206;2022-08-25T07:56:20;24.20;58.10
7970;DHT22;4030;52.362;9.206;2022-08-25T07:58:46;24.30;58.20
7970;DHT22;4030;52.362;9.206;2022-08-25T08:01:17;24.10;57.90
7970;DHT22;4030;52.362;9.206;2022-08-25T08:03:46;24.40;58.10
7970;DHT22;4030;52.362;9.206;2022-08-25T08:06:13;24.50;58.30
7970;DHT22;4030;52.362;9.206;2022-08-25T08:08:42;24.60;58.40
7970;DHT22;4030;52.362;9.206;2022-08-25T08:11:22;24.60;58.20
7970;DHT22;4030;52.362;9.206;2022-08-25T08:16:19;24.50;58.00
7970;DHT22;4030;52.362;9.206;2022-08-25T08:21:14;24.90;58.00
7970;DHT22;4030;52.362;9.206;2022-08-25T08:28:34;24.90;57.90
7970;DHT22;4030;52.362;9.206;2022-08-25T08:33:26;25.30;58.00
7970;DHT22;4030;52.362;9.206;2022-08-25T08:35:58;25.40;58.10
7970;DHT22;4030;52.362;9.206;2022-08-25T08:38:27;25.40;58.00
7970;DHT22;4030;52.362;9.206;2022-08-25T08:49:42;25.80;57.70
7970;DHT22;4030;52.362;9.206;2022-08-25T08:52:15;25.90;57.60
7970;DHT22;4030;52.362;9.206;2022-08-25T08:54:44;26.10;57.70
7970;DHT22;4030;52.362;9.206;2022-08-25T08:57:14;26.10;57.50
7970;DHT22;4030;52.362;9.206;2022-08-25T08:59:48;26.20;57.50
7970;DHT22;4030;52.362;9.206;2022-08-25T09:05:42;26.40;57.20
7970;DHT22;4030;52.362;9.206;2022-08-25T09:08:12;26.50;57.10
7970;DHT22;4030;52.362;9.206;2022-08-25T09:19:44;26.90;56.70
7970;DHT22;4030;52.362;9.206;2022-08-25T09:25:21;27.10;56.30
7970;DHT22;4030;52.362;9.206;2022-08-25T09:28:10;27.10;56.10
7970;DHT22;4030;52.362;9.206;2022-08-25T09:30:58;27.30;56.00
7970;DHT22;4030;52.362;9.206;2022-08-25T09:33:28;27.40;55.90
7970;DHT22;4030;52.362;9.206;2022-08-25T09:35:56;27.50;56.00
7970;DHT22;4030;52.362;9.206;2022-08-25T09:38:23;27.50;55.80
7970;DHT22;4030;52.362;9.206;2022-08-25T09:40:54;27.50;55.70
7970;DHT22;4030;52.362;9.206;2022-08-25T09:46:08;27.80;55.50
7970;DHT22;4030;52.362;9.206;2022-08-25T09:48:56;27.90;55.30
7970;DHT22;4030;52.362;9.206;2022-08-25T09:51:32;28.10;55.30
7970;DHT22;4030;52.362;9.206;2022-08-25T09:56:52;28.30;55.00
7970;DHT22;4030;52.362;9.206;2022-08-25T09:59:29;28.40;54.70
7970;DHT22;4030;52.362;9.206;2022-08-25T10:02:00;28.50;54.40
7970;DHT22;4030;52.362;9.206;2022-08-25T10:04:35;28.60;54.20
7970;DHT22;4030;52.362;9.206;2022-08-25T10:07:19;28.60;53.90
7970;DHT22;4030;52.362;9.206;2022-08-25T10:10:02;28.80;53.60
7970;DHT22;4030;52.362;9.206;2022-08-25T10:12:37;28.90;53.40
7970;DHT22;4030;52.362;9.206;2022-08-25T10:15:20;28.90;53.10
7970;DHT22;4030;52.362;9.206;2022-08-25T10:20:22;29.20;53.10
7970;DHT22;4030;52.362;9.206;2022-08-25T10:22:50;29.30;53.00
7970;DHT22;4030;52.362;9.206;2022-08-25T10:25:37;29.40;53.10
7970;DHT22;4030;52.362;9.206;2022-08-25T10:28:36;29.40;52.90
7970;DHT22;4030;52.362;9.206;2022-08-25T10:34:57;29.60;52.40
7970;DHT22;4030;52.362;9.206;2022-08-25T10:40:19;29.70;52.00
7970;DHT22;4030;52.362;9.206;2022-08-25T10:43:05;29.80;51.80
7970;DHT22;4030;52.362;9.206;2022-08-25T10:45:56;29.80;51.70
7970;DHT22;4030;52.362;9.206;2022-08-25T10:49:03;29.90;51.60
7970;DHT22;4030;52.362;9.206;2022-08-25T11:00:01;30.20;51.00
7970;DHT22;4030;52.362;9.206;2022-08-25T11:03:05;30.20;50.90
7970;DHT22;4030;52.362;9.206;2022-08-25T11:05:58;30.50;51.00
7970;DHT22;4030;52.362;9.206;2022-08-25T11:08:39;30.20;50.60
7970;DHT22;4030;52.362;9.206;2022-08-25T11:11:17;30.40;50.30
7970;DHT22;4030;52.362;9.206;2022-08-25T11:14:03;30.40;50.20
7970;DHT22;4030;52.362;9.206;2022-08-25T11:19:15;30.50;50.10
7970;DHT22;4030;52.362;9.206;2022-08-25T11:22:11;30.60;50.00
7970;DHT22;4030;52.362;9.206;2022-08-25T11:25:01;30.60;49.80
7970;DHT22;4030;52.362;9.206;2022-08-25T11:27:36;30.60;49.70
7970;DHT22;4030;52.362;9.206;2022-08-25T11:30:11;30.70;49.60
7970;DHT22;4030;52.362;9.206;2022-08-25T11:32:39;30.70;49.30
7970;DHT22;4030;52.362;9.206;2022-08-25T11:35:07;30.70;48.90
7970;DHT22;4030;52.362;9.206;2022-08-25T11:37:45;30.60;48.50
7970;DHT22;4030;52.362;9.206;2022-08-25T11:43:32;30.70;48.30
7970;DHT22;4030;52.362;9.206;2022-08-25T11:46:27;30.70;48.50
7970;DHT22;4030;52.362;9.206;2022-08-25T11:49:42;30.70;48.50
7970;DHT22;4030;52.362;9.206;2022-08-25T11:55:12;30.90;48.40
7970;DHT22;4030;52.362;9.206;2022-08-25T11:58:33;30.90;48.10
7970;DHT22;4030;52.362;9.206;2022-08-25T12:15:24;31.40;48.00
7970;DHT22;4030;52.362;9.206;2022-08-25T12:32:12;31.80;45.90
7970;DHT22;4030;52.362;9.206;2022-08-25T12:34:53;31.80;45.60
7970;DHT22;4030;52.362;9.206;2022-08-25T12:37:59;31.90;45.60
7970;DHT22;4030;52.362;9.206;2022-08-25T12:40:34;31.90;45.60
7970;DHT22;4030;52.362;9.206;2022-08-25T12:43:21;31.90;45.60
7970;DHT22;4030;52.362;9.206;2022-08-25T12:45:53;32.00;45.70
7970;DHT22;4030;52.362;9.206;2022-08-25T12:57:19;32.20;45.20
7970;DHT22;4030;52.362;9.206;2022-08-25T12:59:50;32.30;45.40
7970;DHT22;4030;52.362;9.206;2022-08-25T13:11:37;32.50;45.10
7970;DHT22;4030;52.362;9.206;2022-08-25T13:14:33;32.50;45.00
7970;DHT22;4030;52.362;9.206;2022-08-25T13:17:02;32.70;45.30
7970;DHT22;4030;52.362;9.206;2022-08-25T13:21:55;32.70;45.20
7970;DHT22;4030;52.362;9.206;2022-08-25T13:24:25;32.70;44.80
7970;DHT22;4030;52.362;9.206;2022-08-25T13:26:56;32.80;44.50
7970;DHT22;4030;52.362;9.206;2022-08-25T13:29:32;32.90;44.30
7970;DHT22;4030;52.362;9.206;2022-08-25T13:32:04;32.90;44.00
7970;DHT22;4030;52.362;9.206;2022-08-25T13:34:36;32.90;43.60
7970;DHT22;4030;52.362;9.206;2022-08-25T13:37:22;33.00;43.50
7970;DHT22;4030;52.362;9.206;2022-08-25T13:42:48;33.00;43.50
7970;DHT22;4030;52.362;9.206;2022-08-25T13:45:18;33.00;43.20
7970;DHT22;4030;52.362;9.206;2022-08-25T13:47:47;33.00;43.00
7970;DHT22;4030;52.362;9.206;2022-08-25T13:53:12;33.00;42.90
7970;DHT22;4030;52.362;9.206;2022-08-25T13:55:49;33.10;43.00
7970;DHT22;4030;52.362;9.206;2022-08-25T13:58:26;33.10;43.20
7970;DHT22;4030;52.362;9.206;2022-08-25T14:01:11;33.20;43.30
7970;DHT22;4030;52.362;9.206;2022-08-25T14:03:41;33.30;43.20
7970;DHT22;4030;52.362;9.206;2022-08-25T14:09:25;33.40;42.90
7970;DHT22;4030;52.362;9.206;2022-08-25T14:11:30;33.40;42.50
7970;DHT22;4030;52.362;9.206;2022-08-25T14:14:29;33.40;42.30
7970;DHT22;4030;52.362;9.206;2022-08-25T14:17:08;33.50;41.90
7970;DHT22;4030;52.362;9.206;2022-08-25T14:19:36;33.40;41.70
7970;DHT22;4030;52.362;9.206;2022-08-25T14:22:11;33.40;41.50
7970;DHT22;4030;52.362;9.206;2022-08-25T14:24:38;33.40;41.70
7970;DHT22;4030;52.362;9.206;2022-08-25T14:27:04;33.50;41.90
7970;DHT22;4030;52.362;9.206;2022-08-25T14:29:30;33.50;41.90
7970;DHT22;4030;52.362;9.206;2022-08-25T14:31:57;33.50;42.00
7970;DHT22;4030;52.362;9.206;2022-08-25T14:34:26;33.50;41.80
7970;DHT22;4030;52.362;9.206;2022-08-25T14:37:11;33.60;41.60
7970;DHT22;4030;52.362;9.206;2022-08-25T14:42:07;33.60;41.40
7970;DHT22;4030;52.362;9.206;2022-08-25T14:46:59;33.70;41.40
7970;DHT22;4030;52.362;9.206;2022-08-25T14:49:29;33.70;41.30
7970;DHT22;4030;52.362;9.206;2022-08-25T14:52:05;33.70;41.10
7970;DHT22;4030;52.362;9.206;2022-08-25T14:54:33;33.80;41.20
7970;DHT22;4030;52.362;9.206;2022-08-25T14:57:00;33.80;41.10
7970;DHT22;4030;52.362;9.206;2022-08-25T14:59:25;33.90;41.10
7970;DHT22;4030;52.362;9.206;2022-08-25T15:01:52;33.90;41.00
7970;DHT22;4030;52.362;9.206;2022-08-25T15:04:26;33.90;40.80
7970;DHT22;4030;52.362;9.206;2022-08-25T15:06:59;33.90;40.80
7970;DHT22;4030;52.362;9.206;2022-08-25T15:09:26;33.90;40.70
7970;DHT22;4030;52.362;9.206;2022-08-25T15:11:54;33.90;40.60
7970;DHT22;4030;52.362;9.206;2022-08-25T15:14:22;34.00;40.70
7970;DHT22;4030;52.362;9.206;2022-08-25T15:16:51;34.00;40.70
7970;DHT22;4030;52.362;9.206;2022-08-25T15:19:24;34.00;40.60
7970;DHT22;4030;52.362;9.206;2022-08-25T15:21:51;34.10;40.60
7970;DHT22;4030;52.362;9.206;2022-08-25T15:24:19;34.00;40.50
7970;DHT22;4030;52.362;9.206;2022-08-25T15:26:58;34.10;40.40
7970;DHT22;4030;52.362;9.206;2022-08-25T15:29:26;34.10;40.20
7970;DHT22;4030;52.362;9.206;2022-08-25T15:31:54;34.10;40.10
7970;DHT22;4030;52.362;9.206;2022-08-25T15:34:21;34.10;40.00
7970;DHT22;4030;52.362;9.206;2022-08-25T15:36:46;34.10;40.00
7970;DHT22;4030;52.362;9.206;2022-08-25T15:39:13;34.00;40.00
7970;DHT22;4030;52.362;9.206;2022-08-25T15:41:39;34.10;40.00
7970;DHT22;4030;52.362;9.206;2022-08-25T15:44:06;34.00;40.10
7970;DHT22;4030;52.362;9.206;2022-08-25T15:46:33;34.00;40.00
7970;DHT22;4030;52.362;9.206;2022-08-25T15:49:00;34.00;40.10
7970;DHT22;4030;52.362;9.206;2022-08-25T15:51:27;34.00;39.90
7970;DHT22;4030;52.362;9.206;2022-08-25T15:53:53;34.00;40.00
7970;DHT22;4030;52.362;9.206;2022-08-25T15:56:20;34.00;40.00
7970;DHT22;4030;52.362;9.206;2022-08-25T15:58:48;34.00;39.80
7970;DHT22;4030;52.362;9.206;2022-08-25T16:01:18;33.90;39.80
7970;DHT22;4030;52.362;9.206;2022-08-25T16:03:45;33.90;39.90
7970;DHT22;4030;52.362;9.206;2022-08-25T16:06:11;33.90;40.10
7970;DHT22;4030;52.362;9.206;2022-08-25T16:08:37;33.90;40.20
7970;DHT22;4030;52.362;9.206;2022-08-25T16:11:04;33.80;40.10
7970;DHT22;4030;52.362;9.206;2022-08-25T16:13:31;33.80;40.10
7970;DHT22;4030;52.362;9.206;2022-08-25T16:15:57;33.80;40.10
7970;DHT22;4030;52.362;9.206;2022-08-25T16:18:24;33.80;40.20
7970;DHT22;4030;52.362;9.206;2022-08-25T16:20:50;33.80;40.20
7970;DHT22;4030;52.362;9.206;2022-08-25T16:23:17;33.70;40.10
7970;DHT22;4030;52.362;9.206;2022-08-25T16:25:46;33.70;40.10
7970;DHT22;4030;52.362;9.206;2022-08-25T16:28:13;33.70;40.10
7970;DHT22;4030;52.362;9.206;2022-08-25T16:30:45;33.70;40.10
7970;DHT22;4030;52.362;9.206;2022-08-25T16:33:12;33.60;40.00
7970;DHT22;4030;52.362;9.206;2022-08-25T16:35:38;33.60;40.10
7970;DHT22;4030;52.362;9.206;2022-08-25T16:38:03;33.50;40.10
7970;DHT22;4030;52.362;9.206;2022-08-25T16:40:30;33.50;40.30
7970;DHT22;4030;52.362;9.206;2022-08-25T16:42:56;33.40;40.30
7970;DHT22;4030;52.362;9.206;2022-08-25T16:45:22;33.40;40.40
7970;DHT22;4030;52.362;9.206;2022-08-25T16:47:48;33.30;40.50
7970;DHT22;4030;52.362;9.206;2022-08-25T16:50:16;33.30;40.60
7970;DHT22;4030;52.362;9.206;2022-08-25T16:52:41;33.30;40.60
7970;DHT22;4030;52.362;9.206;2022-08-25T16:55:27;33.20;40.60
7970;DHT22;4030;52.362;9.206;2022-08-25T16:57:54;33.20;40.70
7970;DHT22;4030;52.362;9.206;2022-08-25T17:00:23;33.10;40.80
7970;DHT22;4030;52.362;9.206;2022-08-25T17:02:58;33.10;40.90
7970;DHT22;4030;52.362;9.206;2022-08-25T17:05:27;33.10;41.10
7970;DHT22;4030;52.362;9.206;2022-08-25T17:07:54;33.00;41.10
7970;DHT22;4030;52.362;9.206;2022-08-25T17:10:41;32.90;41.10
7970;DHT22;4030;52.362;9.206;2022-08-25T17:13:08;32.90;41.30
7970;DHT22;4030;52.362;9.206;2022-08-25T17:15:39;32.80;41.30
7970;DHT22;4030;52.362;9.206;2022-08-25T17:18:06;32.80;41.50
7970;DHT22;4030;52.362;9.206;2022-08-25T17:20:32;32.90;41.60
7970;DHT22;4030;52.362;9.206;2022-08-25T17:25:25;32.60;41.70
7970;DHT22;4030;52.362;9.206;2022-08-25T17:27:51;32.60;41.80
7970;DHT22;4030;52.362;9.206;2022-08-25T17:30:16;32.50;41.80
7970;DHT22;4030;52.362;9.206;2022-08-25T17:32:42;32.50;41.90
7970;DHT22;4030;52.362;9.206;2022-08-25T17:35:09;32.40;42.00
7970;DHT22;4030;52.362;9.206;2022-08-25T17:37:35;32.40;42.20
7970;DHT22;4030;52.362;9.206;2022-08-25T17:40:03;32.30;42.20
7970;DHT22;4030;52.362;9.206;2022-08-25T17:42:30;32.30;42.20
7970;DHT22;4030;52.362;9.206;2022-08-25T17:47:22;32.10;42.50
7970;DHT22;4030;52.362;9.206;2022-08-25T17:49:47;32.10;42.60
7970;DHT22;4030;52.362;9.206;2022-08-25T17:52:13;32.10;42.70
7970;DHT22;4030;52.362;9.206;2022-08-25T17:54:41;32.20;42.90
7970;DHT22;4030;52.362;9.206;2022-08-25T17:57:07;32.00;42.90
7970;DHT22;4030;52.362;9.206;2022-08-25T17:59:32;32.00;43.10
7970;DHT22;4030;52.362;9.206;2022-08-25T18:01:59;31.80;43.20
7970;DHT22;4030;52.362;9.206;2022-08-25T18:04:24;31.80;43.30
7970;DHT22;4030;52.362;9.206;2022-08-25T18:06:50;31.80;43.40
7970;DHT22;4030;52.362;9.206;2022-08-25T18:14:09;31.60;43.80
7970;DHT22;4030;52.362;9.206;2022-08-25T18:16:35;31.60;43.90
7970;DHT22;4030;52.362;9.206;2022-08-25T18:19:01;31.60;44.00
7970;DHT22;4030;52.362;9.206;2022-08-25T18:21:27;31.50;44.10
7970;DHT22;4030;52.362;9.206;2022-08-25T18:26:20;31.40;44.40
7970;DHT22;4030;52.362;9.206;2022-08-25T18:28:46;31.40;44.50
7970;DHT22;4030;52.362;9.206;2022-08-25T18:31:12;31.30;44.60
7970;DHT22;4030;52.362;9.206;2022-08-25T18:33:38;31.30;44.70
7970;DHT22;4030;52.362;9.206;2022-08-25T18:36:07;31.20;44.80
7970;DHT22;4030;52.362;9.206;2022-08-25T18:38:33;31.20;45.00
7970;DHT22;4030;52.362;9.206;2022-08-25T18:41:17;31.20;45.10
7970;DHT22;4030;52.362;9.206;2022-08-25T18:43:43;31.10;45.20
7970;DHT22;4030;52.362;9.206;2022-08-25T18:46:09;30.90;45.30
7970;DHT22;4030;52.362;9.206;2022-08-25T18:48:35;31.00;45.50
7970;DHT22;4030;52.362;9.206;2022-08-25T18:51:02;31.00;45.60
7970;DHT22;4030;52.362;9.206;2022-08-25T18:53:29;30.80;45.60
7970;DHT22;4030;52.362;9.206;2022-08-25T18:55:55;30.80;45.70
7970;DHT22;4030;52.362;9.206;2022-08-25T18:58:23;30.80;45.90
7970;DHT22;4030;52.362;9.206;2022-08-25T19:00:49;30.70;45.90
7970;DHT22;4030;52.362;9.206;2022-08-25T19:03:16;30.60;46.00
7970;DHT22;4030;52.362;9.206;2022-08-25T19:05:44;30.70;46.20
7970;DHT22;4030;52.362;9.206;2022-08-25T19:08:13;30.60;46.30
7970;DHT22;4030;52.362;9.206;2022-08-25T19:10:41;30.60;46.40
7970;DHT22;4030;52.362;9.206;2022-08-25T19:13:09;30.50;46.50
7970;DHT22;4030;52.362;9.206;2022-08-25T19:15:37;30.40;46.50
7970;DHT22;4030;52.362;9.206;2022-08-25T19:18:05;30.40;46.70
7970;DHT22;4030;52.362;9.206;2022-08-25T19:20:31;30.40;46.90
7970;DHT22;4030;52.362;9.206;2022-08-25T19:25:25;30.30;47.10